Time;durP1;ratioP1;P1;durP2;ratioP2;P2;SDS_P1;SDS_P2;PMS_P1;PMS_P2;Temp;Humidity;BMP_temperature;BMP_pressure;BME280_temperature;BME280_humidity;BME280_pressure;Samples;Min_cycle;Max_cycle;Signal;HPM_P1;HPM_P2
2020/12/11 00:00:06;;;;;;;7.00;3.83;;;3.10;99.90;;;;;;5065431;28;20398;-49
2020/12/11 00:02:35;;;;;;;6.43;4.00;;;3.10;99.90;;;;;;5061845;28;20790;-48
2020/12/11 00:05:02;;;;;;;6.80;4.35;;;3.10;99.90;;;;;;5066247;28;20854;-48
2020/12/11 00:07:29;;;;;;;6.88;4.20;;;3.00;99.90;;;;;;5062651;28;20746;-49
2020/12/11 00:09:55;;;;;;;6.72;4.03;;;3.00;99.90;;;;;;5058490;28;20399;-49
2020/12/11 00:12:21;;;;;;;6.20;3.83;;;3.00;99.90;;;;;;5060115;28;20895;-49
2020/12/11 00:14:47;;;;;;;6.28;4.30;;;3.00;99.90;;;;;;5062226;28;20394;-48
2020/12/11 00:17:13;;;;;;;5.80;4.03;;;3.00;99.90;;;;;;5063295;28;20901;-49
2020/12/11 00:19:39;;;;;;;6.88;4.15;;;3.00;99.90;;;;;;5063120;28;20390;-49
2020/12/11 00:22:05;;;;;;;6.40;4.28;;;3.00;99.90;;;;;;5061580;28;20978;-49
2020/12/11 00:24:31;;;;;;;8.30;4.23;;;2.90;99.90;;;;;;5058820;28;20388;-50
2020/12/11 00:26:58;;;;;;;8.18;4.47;;;2.90;99.90;;;;;;5052255;28;20384;-48
2020/12/11 00:29:24;;;;;;;5.50;4.10;;;2.90;99.90;;;;;;5063596;28;20727;-49
2020/12/11 00:31:50;;;;;;;7.95;4.25;;;3.00;99.90;;;;;;5063156;28;20868;-48
2020/12/11 00:34:16;;;;;;;5.82;3.70;;;3.00;99.90;;;;;;5067388;28;20405;-49
2020/12/11 00:36:42;;;;;;;8.07;4.53;;;2.90;99.90;;;;;;5064295;28;20410;-48
2020/12/11 00:39:08;;;;;;;7.15;4.53;;;2.90;99.90;;;;;;5063783;28;20383;-48
2020/12/11 00:41:38;;;;;;;6.05;3.90;;;3.00;99.90;;;;;;5060376;28;20917;-49
2020/12/11 00:44:04;;;;;;;5.67;3.70;;;3.00;99.90;;;;;;5067893;28;20469;-49
2020/12/11 00:46:34;;;;;;;5.07;3.60;;;3.00;99.90;;;;;;5067174;28;20385;-51
2020/12/11 00:49:00;;;;;;;9.00;4.32;;;3.00;99.90;;;;;;5059869;28;20774;-48
2020/12/11 00:51:26;;;;;;;6.60;3.85;;;3.00;99.90;;;;;;5055221;28;20388;-49
2020/12/11 00:53:52;;;;;;;7.22;3.90;;;3.00;99.90;;;;;;5062015;28;20869;-49
2020/12/11 00:56:18;;;;;;;6.40;4.07;;;3.00;99.90;;;;;;5054323;28;20411;-48
2020/12/11 00:58:45;;;;;;;6.00;4.10;;;2.90;99.90;;;;;;5060578;28;20857;-48
2020/12/11 01:01:11;;;;;;;5.38;3.83;;;2.90;99.90;;;;;;5065070;28;20394;-48
2020/12/11 01:03:37;;;;;;;6.15;4.03;;;2.90;99.90;;;;;;5065794;28;20409;-49
2020/12/11 01:06:03;;;;;;;5.28;3.55;;;3.00;99.90;;;;;;5061416;28;20720;-48
2020/12/11 01:08:29;;;;;;;5.93;3.65;;;3.00;99.90;;;;;;5064422;28;20401;-48
2020/12/11 01:10:55;;;;;;;7.37;4.20;;;3.00;99.90;;;;;;5061561;28;20399;-48
2020/12/11 01:13:21;;;;;;;6.07;3.67;;;3.00;99.90;;;;;;5064803;28;20433;-48
2020/12/11 01:15:47;;;;;;;6.55;3.85;;;3.00;99.90;;;;;;5060924;28;20382;-48
2020/12/11 01:18:13;;;;;;;6.00;3.50;;;3.00;99.90;;;;;;5054619;28;20850;-49
2020/12/11 01:20:40;;;;;;;5.80;3.50;;;3.00;99.90;;;;;;5055772;28;20387;-48
2020/12/11 01:23:06;;;;;;;5.65;3.60;;;3.00;99.90;;;;;;5061080;28;20404;-48
2020/12/11 01:25:32;;;;;;;5.60;3.70;;;2.90;99.90;;;;;;5058285;28;20390;-48
2020/12/11 01:27:58;;;;;;;5.90;3.78;;;2.90;99.90;;;;;;5051167;28;20392;-48
2020/12/11 01:30:26;;;;;;;4.97;3.20;;;2.90;99.90;;;;;;5061678;28;20386;-49
2020/12/11 01:32:55;;;;;;;5.25;3.47;;;2.90;99.90;;;;;;5061102;28;20898;-49
2020/12/11 01:35:21;;;;;;;5.80;3.70;;;2.90;99.90;;;;;;5065345;28;20397;-48
2020/12/11 01:37:47;;;;;;;4.90;3.50;;;2.90;99.90;;;;;;5069722;28;20402;-48
2020/12/11 01:40:16;;;;;;;5.35;3.58;;;2.80;99.90;;;;;;5059965;28;20984;-48
2020/12/11 01:42:44;;;;;;;6.20;3.80;;;2.80;99.90;;;;;;5068476;28;20406;-49
2020/12/11 01:45:10;;;;;;;5.57;3.72;;;2.90;99.90;;;;;;5060886;28;20781;-48
2020/12/11 01:47:39;;;;;;;7.50;3.58;;;2.90;99.90;;;;;;5058298;28;20399;-48
2020/12/11 01:50:09;;;;;;;5.78;3.63;;;2.90;99.90;;;;;;5060334;28;20386;-48
2020/12/11 01:52:35;;;;;;;5.53;3.70;;;2.80;99.90;;;;;;5066275;28;20386;-49
2020/12/11 01:55:01;;;;;;;5.70;3.67;;;2.80;99.90;;;;;;5068731;28;20401;-48
2020/12/11 01:57:45;;;;;;;5.95;3.90;;;2.80;99.90;;;;;;5055301;28;20408;-48
2020/12/11 02:00:11;;;;;;;6.45;3.80;;;2.80;99.90;;;;;;5058932;28;20378;-48
2020/12/11 02:02:38;;;;;;;6.13;3.88;;;2.80;99.90;;;;;;5050000;28;20394;-49
2020/12/11 02:05:07;;;;;;;7.10;4.35;;;2.80;99.90;;;;;;5070015;28;20440;-48
2020/12/11 02:07:39;;;;;;;6.43;4.05;;;2.80;99.90;;;;;;5065233;28;20390;-48
2020/12/11 02:10:09;;;;;;;6.55;4.00;;;2.80;99.90;;;;;;5054870;28;21259;-48
2020/12/11 02:12:36;;;;;;;7.33;3.90;;;2.80;99.90;;;;;;5060451;28;20882;-48
2020/12/11 02:15:05;;;;;;;6.05;3.92;;;2.80;99.90;;;;;;5064472;28;20862;-48
2020/12/11 02:17:31;;;;;;;6.85;3.80;;;2.80;99.90;;;;;;5058136;28;20730;-49
2020/12/11 02:19:57;;;;;;;7.83;4.20;;;2.80;99.90;;;;;;5060435;28;20742;-49
2020/12/11 02:22:23;;;;;;;7.00;3.87;;;2.80;99.90;;;;;;5061773;28;20380;-48
2020/12/11 02:24:50;;;;;;;6.07;4.03;;;2.80;99.90;;;;;;5065417;28;20454;-49
2020/12/11 02:27:16;;;;;;;6.00;3.80;;;2.80;99.90;;;;;;5063648;28;20403;-48
2020/12/11 02:29:42;;;;;;;6.95;3.90;;;2.80;99.90;;;;;;5056108;28;20390;-48
2020/12/11 02:32:09;;;;;;;5.80;3.80;;;2.80;99.90;;;;;;5066255;28;20391;-48
2020/12/11 02:34:35;;;;;;;6.68;3.55;;;2.80;99.90;;;;;;5067780;28;20411;-48
2020/12/11 02:37:02;;;;;;;5.35;3.65;;;2.80;99.90;;;;;;5067674;28;20484;-48
2020/12/11 02:39:28;;;;;;;6.90;4.05;;;2.80;99.90;;;;;;5068484;28;20393;-48
2020/12/11 02:41:54;;;;;;;5.15;3.50;;;2.80;99.90;;;;;;5073278;28;20407;-48
2020/12/11 02:44:21;;;;;;;6.00;3.70;;;2.80;99.90;;;;;;5065081;28;20391;-49
2020/12/11 02:46:47;;;;;;;5.40;3.80;;;2.80;99.90;;;;;;5070233;28;20412;-49
2020/12/11 02:49:13;;;;;;;6.78;3.70;;;2.80;99.90;;;;;;5064851;28;20752;-48
2020/12/11 02:51:39;;;;;;;6.32;4.00;;;2.80;99.90;;;;;;5061653;28;20394;-48
2020/12/11 02:54:05;;;;;;;5.55;3.80;;;2.80;99.90;;;;;;5063246;28;20378;-49
2020/12/11 02:56:31;;;;;;;5.13;3.22;;;2.80;99.90;;;;;;5056178;28;20832;-49
2020/12/11 02:58:57;;;;;;;4.95;3.35;;;2.80;99.90;;;;;;5061265;28;20394;-48
2020/12/11 03:01:27;;;;;;;5.00;3.70;;;2.80;99.90;;;;;;5062411;28;20736;-49
2020/12/11 03:03:55;;;;;;;7.10;3.55;;;2.80;99.90;;;;;;5067733;28;20410;-48
2020/12/11 03:06:26;;;;;;;5.53;3.83;;;2.80;99.90;;;;;;5063118;28;20380;-49
2020/12/11 03:08:52;;;;;;;4.50;3.20;;;2.80;99.90;;;;;;5069443;28;20755;-48
2020/12/11 03:11:18;;;;;;;6.32;3.72;;;2.80;99.90;;;;;;5065822;28;20851;-49
2020/12/11 03:13:45;;;;;;;5.53;3.47;;;2.80;99.90;;;;;;5060912;28;20411;-48
2020/12/11 03:16:12;;;;;;;5.07;3.42;;;2.80;99.90;;;;;;5069083;28;20397;-49
2020/12/11 03:18:38;;;;;;;5.10;3.65;;;2.80;99.90;;;;;;5062954;28;20417;-48
2020/12/11 03:21:04;;;;;;;5.32;3.38;;;2.80;99.90;;;;;;5058397;28;20386;-49
2020/12/11 03:23:30;;;;;;;5.03;3.42;;;2.80;99.90;;;;;;5065417;28;20417;-49
2020/12/11 03:25:56;;;;;;;5.32;3.53;;;2.80;99.90;;;;;;5066680;28;20383;-48
2020/12/11 03:28:22;;;;;;;5.13;3.47;;;2.80;99.90;;;;;;5061501;28;20404;-48
2020/12/11 03:30:48;;;;;;;4.78;3.40;;;2.70;99.90;;;;;;5064046;28;20391;-49
2020/12/11 03:33:15;;;;;;;5.70;3.58;;;2.70;99.90;;;;;;5062203;28;20409;-49
2020/12/11 03:35:41;;;;;;;4.90;3.33;;;2.70;99.90;;;;;;5069249;28;20536;-48
2020/12/11 03:38:07;;;;;;;5.57;3.40;;;2.70;99.90;;;;;;5063529;28;20418;-48
2020/12/11 03:40:33;;;;;;;5.25;3.20;;;2.70;99.90;;;;;;5062192;28;20383;-48
2020/12/11 03:42:59;;;;;;;5.25;3.20;;;2.70;99.90;;;;;;5071616;28;20410;-48
2020/12/11 03:45:28;;;;;;;7.53;3.27;;;2.70;99.90;;;;;;5062159;28;20407;-48
2020/12/11 03:47:55;;;;;;;5.68;3.25;;;2.70;99.90;;;;;;5067637;28;20900;-48
2020/12/11 03:50:21;;;;;;;5.03;3.47;;;2.70;99.90;;;;;;5064652;28;20392;-48
2020/12/11 03:52:47;;;;;;;4.40;3.08;;;2.70;99.90;;;;;;5067880;28;20386;-49
2020/12/11 03:55:13;;;;;;;6.65;2.90;;;2.80;99.90;;;;;;5069752;28;20402;-48
2020/12/11 03:57:39;;;;;;;4.75;3.33;;;2.70;99.90;;;;;;5066709;28;20421;-48
2020/12/11 04:00:05;;;;;;;6.00;3.20;;;2.70;99.90;;;;;;5063999;28;20419;-49
2020/12/11 04:02:34;;;;;;;6.20;2.93;;;2.70;99.90;;;;;;5063693;28;20453;-49
2020/12/11 04:05:04;;;;;;;4.68;2.90;;;2.70;99.90;;;;;;5066570;28;20378;-48
2020/12/11 04:07:31;;;;;;;4.30;2.70;;;2.70;99.90;;;;;;5068844;28;20387;-48
2020/12/11 04:09:57;;;;;;;4.05;2.50;;;2.70;99.90;;;;;;5061456;28;20416;-48
2020/12/11 04:12:23;;;;;;;4.20;2.70;;;2.80;99.90;;;;;;5064958;28;20900;-49
2020/12/11 04:14:49;;;;;;;4.82;2.75;;;2.80;99.90;;;;;;5068592;28;20401;-48
2020/12/11 04:17:15;;;;;;;4.35;2.90;;;2.80;99.90;;;;;;5067323;28;20398;-48
2020/12/11 04:19:42;;;;;;;4.07;2.65;;;2.80;99.90;;;;;;5067010;28;20631;-49
2020/12/11 04:22:08;;;;;;;4.68;2.83;;;2.80;99.90;;;;;;5056988;28;20395;-49
2020/12/11 04:24:34;;;;;;;3.92;2.63;;;2.80;99.90;;;;;;5061819;28;20392;-48
2020/12/11 04:27:00;;;;;;;4.68;2.85;;;2.80;99.90;;;;;;5066907;28;20389;-49
2020/12/11 04:29:26;;;;;;;3.90;2.58;;;2.80;99.90;;;;;;5063109;28;20483;-48
2020/12/11 04:31:54;;;;;;;5.17;2.70;;;2.80;99.90;;;;;;5061787;28;20411;-48
2020/12/11 04:34:20;;;;;;;4.35;2.70;;;2.80;99.90;;;;;;5068568;28;20409;-48
2020/12/11 04:36:53;;;;;;;4.80;3.13;;;2.70;99.90;;;;;;5061868;28;20409;-48
2020/12/11 04:39:20;;;;;;;4.75;2.75;;;2.80;99.90;;;;;;5064751;28;20850;-48
2020/12/11 04:41:46;;;;;;;4.95;2.67;;;2.80;99.90;;;;;;5064990;28;20481;-48
2020/12/11 04:44:12;;;;;;;6.60;2.65;;;2.70;99.90;;;;;;5053877;28;20397;-48
2020/12/11 04:46:39;;;;;;;6.88;2.50;;;2.70;99.90;;;;;;5062558;28;20386;-48
2020/12/11 04:49:08;;;;;;;4.40;2.77;;;2.70;99.90;;;;;;5055830;28;20411;-49
2020/12/11 04:51:34;;;;;;;5.13;2.80;;;2.70;99.90;;;;;;5068900;28;20394;-48
2020/12/11 04:54:01;;;;;;;5.85;2.80;;;2.70;99.90;;;;;;5059364;28;20390;-49
2020/12/11 04:56:28;;;;;;;4.63;2.83;;;2.70;99.90;;;;;;5060511;28;20391;-46
2020/12/11 04:58:54;;;;;;;4.10;2.60;;;2.70;99.90;;;;;;5060344;28;20406;-46
2020/12/11 05:01:46;;;;;;;4.70;2.78;;;2.70;99.90;;;;;;5058559;28;20399;-46
2020/12/11 05:04:13;;;;;;;5.90;2.70;;;2.80;99.90;;;;;;5065575;28;20911;-46
2020/12/11 05:06:39;;;;;;;4.22;2.70;;;2.80;99.90;;;;;;5063091;28;20880;-47
2020/12/11 05:09:15;;;;;;;3.97;2.70;;;2.80;99.90;;;;;;5062982;28;20366;-46
2020/12/11 05:11:43;;;;;;;4.80;2.67;;;2.70;99.90;;;;;;5065896;28;20394;-46
2020/12/11 05:14:22;;;;;;;3.80;2.70;;;2.80;99.90;;;;;;5059025;28;20394;-46
2020/12/11 05:17:02;;;;;;;4.82;2.88;;;2.80;99.90;;;;;;5068848;28;20397;-46
2020/12/11 05:19:29;;;;;;;4.88;3.15;;;2.80;99.90;;;;;;5062175;28;20884;-46
2020/12/11 05:22:08;;;;;;;5.30;2.83;;;2.80;99.90;;;;;;5056185;28;20733;-46
2020/12/11 05:25:00;;;;;;;5.13;2.83;;;2.80;99.90;;;;;;5061509;28;20367;-48
2020/12/11 05:27:41;;;;;;;3.70;2.50;;;2.80;99.90;;;;;;5054075;28;20415;-48
2020/12/11 05:30:07;;;;;;;4.35;2.50;;;2.80;99.90;;;;;;5064492;28;20390;-47
2020/12/11 05:32:34;;;;;;;5.45;2.72;;;2.80;99.90;;;;;;5056627;28;20760;-51
2020/12/11 05:35:01;;;;;;;5.77;2.97;;;2.80;99.90;;;;;;5068601;28;20398;-50
2020/12/11 05:37:27;;;;;;;5.80;2.70;;;2.80;99.90;;;;;;5064297;28;20406;-49
2020/12/11 05:39:53;;;;;;;4.15;2.78;;;2.80;99.90;;;;;;5063172;28;20380;-50
2020/12/11 05:42:22;;;;;;;6.22;2.85;;;2.80;99.90;;;;;;5064074;28;20374;-49
2020/12/11 05:44:48;;;;;;;5.00;2.72;;;2.80;99.90;;;;;;5068986;28;20729;-49
2020/12/11 05:47:19;;;;;;;4.85;2.80;;;2.80;99.90;;;;;;5069803;28;20383;-51
2020/12/11 05:49:45;;;;;;;6.00;3.00;;;2.80;99.90;;;;;;5069818;28;20393;-49
2020/12/11 05:52:15;;;;;;;4.90;2.90;;;2.80;99.90;;;;;;5061996;28;20849;-50
2020/12/11 05:54:44;;;;;;;7.97;3.08;;;2.80;99.90;;;;;;5054861;28;20378;-50
2020/12/11 05:57:11;;;;;;;5.23;3.00;;;2.80;99.90;;;;;;5065389;28;20367;-49
2020/12/11 05:59:38;;;;;;;7.45;2.80;;;2.80;99.90;;;;;;5068943;28;20390;-50
2020/12/11 06:02:04;;;;;;;10.23;2.95;;;2.80;99.90;;;;;;5049349;28;20736;-49
2020/12/11 06:04:33;;;;;;;9.32;3.20;;;2.80;99.90;;;;;;5066569;28;20398;-50
2020/12/11 06:06:59;;;;;;;7.75;3.15;;;2.80;99.90;;;;;;5068165;28;20385;-50
2020/12/11 06:09:35;;;;;;;10.65;3.03;;;2.80;99.90;;;;;;5069281;28;20382;-49
2020/12/11 06:12:03;;;;;;;7.07;2.85;;;2.80;99.90;;;;;;5031566;28;697909;-50
2020/12/11 06:14:52;;;;;;;5.88;2.80;;;2.80;99.90;;;;;;5053829;28;20760;-50
2020/12/11 06:17:20;;;;;;;4.80;2.90;;;2.80;99.90;;;;;;5069219;28;20871;-49
2020/12/11 06:19:47;;;;;;;6.35;3.03;;;2.80;99.90;;;;;;5065697;28;20405;-51
2020/12/11 06:22:13;;;;;;;5.72;2.88;;;2.80;99.90;;;;;;5049099;28;20380;-49
2020/12/11 06:24:39;;;;;;;6.72;3.03;;;2.80;99.90;;;;;;5055280;28;20391;-50
2020/12/11 06:27:05;;;;;;;4.72;2.85;;;2.80;99.90;;;;;;5050172;28;20380;-50
2020/12/11 06:29:40;;;;;;;5.18;3.00;;;2.80;99.90;;;;;;5050250;28;20403;-51
2020/12/11 06:32:07;;;;;;;7.85;3.17;;;2.80;99.90;;;;;;5053412;28;20853;-50
2020/12/11 06:34:33;;;;;;;9.30;3.30;;;2.80;99.90;;;;;;5065477;28;20398;-50
2020/12/11 06:36:59;;;;;;;8.52;3.53;;;2.80;99.90;;;;;;5065439;28;20881;-50
2020/12/11 06:39:45;;;;;;;7.03;3.40;;;2.80;99.90;;;;;;5068560;28;20883;-50
2020/12/11 06:42:38;;;;;;;10.20;3.50;;;2.80;99.90;;;;;;5061668;28;20394;-50
2020/12/11 06:45:24;;;;;;;5.20;3.38;;;2.80;99.90;;;;;;5063464;28;20413;-49
2020/12/11 06:47:57;;;;;;;9.25;3.33;;;2.80;99.90;;;;;;5063540;28;20391;-49
2020/12/11 06:50:25;;;;;;;7.97;3.50;;;2.80;99.90;;;;;;5066140;28;20381;-50
2020/12/11 06:52:51;;;;;;;6.80;3.38;;;2.80;99.90;;;;;;5064283;28;20374;-50
2020/12/11 06:55:17;;;;;;;8.25;3.58;;;2.80;99.90;;;;;;5060915;28;20870;-49
2020/12/11 06:57:44;;;;;;;7.15;3.47;;;2.80;99.90;;;;;;5059524;28;20408;-53
2020/12/11 07:00:25;;;;;;;6.47;3.23;;;2.80;99.90;;;;;;5056476;28;20366;-49
2020/12/11 07:03:13;;;;;;;8.15;3.50;;;2.80;99.90;;;;;;5062597;28;20408;-49
2020/12/11 07:05:39;;;;;;;6.63;3.65;;;2.80;99.90;;;;;;5069998;28;20875;-49
2020/12/11 07:08:15;;;;;;;6.38;3.55;;;2.80;99.90;;;;;;5073411;28;20392;-49
2020/12/11 07:10:41;;;;;;;10.18;4.90;;;2.80;99.90;;;;;;5062859;28;20414;-49
2020/12/11 07:13:11;;;;;;;7.70;4.15;;;2.80;99.90;;;;;;5064863;28;20393;-49
2020/12/11 07:15:37;;;;;;;6.82;3.70;;;2.80;99.90;;;;;;5049362;28;20387;-49
2020/12/11 07:18:16;;;;;;;9.18;3.70;;;2.80;99.90;;;;;;5054655;28;20433;-51
2020/12/11 07:20:50;;;;;;;8.75;4.30;;;2.80;99.90;;;;;;5067456;28;20747;-50
2020/12/11 07:23:16;;;;;;;11.95;5.03;;;2.80;99.90;;;;;;5068484;28;20400;-49
2020/12/11 07:25:43;;;;;;;9.85;4.70;;;2.80;99.90;;;;;;5067161;28;20402;-49
2020/12/11 07:28:09;;;;;;;26.88;7.22;;;2.80;99.90;;;;;;5064231;28;20391;-50
2020/12/11 07:30:35;;;;;;;10.43;5.22;;;2.80;99.90;;;;;;5054790;28;20372;-49
2020/12/11 07:33:01;;;;;;;13.57;5.35;;;2.80;99.90;;;;;;5067690;28;20406;-50
2020/12/11 07:35:27;;;;;;;9.45;5.47;;;2.80;99.90;;;;;;5061278;28;20397;-50
2020/12/11 07:37:55;;;;;;;11.57;5.28;;;2.80;99.90;;;;;;5066104;28;20406;-49
2020/12/11 07:40:21;;;;;;;10.10;5.03;;;2.80;99.90;;;;;;5066766;28;20394;-49
2020/12/11 07:42:48;;;;;;;12.23;5.05;;;2.80;99.90;;;;;;5060649;28;20401;-49
2020/12/11 07:45:37;;;;;;;11.52;5.63;;;2.80;99.90;;;;;;5060176;28;20386;-49
2020/12/11 07:48:03;;;;;;;10.43;5.35;;;2.80;99.90;;;;;;5064872;28;20413;-49
2020/12/11 07:50:30;;;;;;;9.63;5.40;;;2.80;99.90;;;;;;5067998;28;20389;-50
2020/12/11 07:52:57;;;;;;;9.73;5.53;;;2.70;99.90;;;;;;5064812;28;20411;-49
2020/12/11 07:55:24;;;;;;;11.85;6.25;;;2.70;99.90;;;;;;5057415;28;20380;-49
2020/12/11 07:57:54;;;;;;;11.15;6.40;;;2.70;99.90;;;;;;5055692;28;20407;-50
2020/12/11 08:00:20;;;;;;;11.82;6.50;;;2.70;99.90;;;;;;5056062;28;20734;-52
2020/12/11 08:03:06;;;;;;;10.57;6.32;;;2.60;99.90;;;;;;5065352;28;20423;-53
2020/12/11 08:05:37;;;;;;;11.88;6.10;;;2.60;99.90;;;;;;5065862;28;20394;-49
2020/12/11 08:08:04;;;;;;;10.32;6.13;;;2.60;99.90;;;;;;5067626;28;20392;-50
2020/12/11 08:10:35;;;;;;;11.17;6.20;;;2.50;99.90;;;;;;5065901;28;20383;-49
2020/12/11 08:13:12;;;;;;;12.00;6.60;;;2.50;99.90;;;;;;5067864;28;20901;-50
2020/12/11 08:15:39;;;;;;;10.70;6.50;;;2.50;99.90;;;;;;5064758;28;20406;-49
2020/12/11 08:18:27;;;;;;;12.43;6.60;;;2.40;99.90;;;;;;5064721;28;20414;-49
2020/12/11 08:20:58;;;;;;;11.65;6.97;;;2.50;99.90;;;;;;5061260;28;20375;-49
2020/12/11 08:23:39;;;;;;;10.63;6.63;;;2.50;99.90;;;;;;5065944;28;20389;-50
2020/12/11 08:26:08;;;;;;;11.75;6.45;;;2.50;99.90;;;;;;5071099;28;20893;-49
2020/12/11 08:28:34;;;;;;;10.88;6.35;;;2.50;99.90;;;;;;5071527;28;20366;-50
2020/12/11 08:31:26;;;;;;;11.85;6.30;;;2.50;99.90;;;;;;5055865;28;20382;-50
2020/12/11 08:34:02;;;;;;;11.57;6.47;;;2.50;99.90;;;;;;5069462;28;20479;-49
2020/12/11 08:36:29;;;;;;;10.75;6.07;;;2.50;99.90;;;;;;5071064;28;20393;-50
2020/12/11 08:39:04;;;;;;;9.57;5.97;;;2.60;99.90;;;;;;5069816;28;20433;-49
2020/12/11 08:41:31;;;;;;;10.40;6.03;;;2.60;99.90;;;;;;5064635;28;20386;-49
2020/12/11 08:43:59;;;;;;;9.90;6.18;;;2.60;99.90;;;;;;5057260;28;20391;-50
2020/12/11 08:51:35;;;;;;;9.02;5.63;;;2.70;99.90;;;;;;5062458;28;20914;-49
2020/12/11 08:54:05;;;;;;;8.95;5.72;;;2.70;99.90;;;;;;5062450;28;20872;-50
2020/12/11 08:56:32;;;;;;;9.55;5.50;;;2.70;99.90;;;;;;5062030;28;20392;-49
2020/12/11 08:58:58;;;;;;;9.43;5.90;;;2.80;99.90;;;;;;5063855;28;20414;-49
2020/12/11 09:01:24;;;;;;;11.27;6.10;;;2.80;99.90;;;;;;5057690;28;20384;-49
2020/12/11 09:03:50;;;;;;;10.25;6.00;;;2.80;99.90;;;;;;5064470;28;20406;-50
2020/12/11 09:06:16;;;;;;;12.15;6.88;;;2.80;99.90;;;;;;5055644;28;20385;-49
2020/12/11 09:08:42;;;;;;;10.13;6.15;;;2.90;99.90;;;;;;5069566;28;20390;-50
2020/12/11 09:11:09;;;;;;;11.13;6.00;;;2.90;99.90;;;;;;5063865;28;20384;-50
2020/12/11 09:13:35;;;;;;;10.13;6.00;;;2.90;99.90;;;;;;5069673;28;20398;-50
2020/12/11 09:16:01;;;;;;;9.13;5.68;;;2.90;99.90;;;;;;5066999;28;20386;-49
2020/12/11 09:18:27;;;;;;;7.88;5.20;;;2.90;99.90;;;;;;5062038;28;20413;-51
2020/12/11 09:20:54;;;;;;;9.98;5.43;;;3.00;99.90;;;;;;5063559;28;20391;-50
2020/12/11 09:23:23;;;;;;;9.90;5.47;;;3.00;99.90;;;;;;5057875;28;20379;-50
2020/12/11 09:25:49;;;;;;;10.52;5.93;;;3.10;99.90;;;;;;5059411;28;20396;-54
2020/12/11 09:28:18;;;;;;;11.13;5.85;;;3.10;99.90;;;;;;5053847;28;20382;-50
2020/12/11 09:30:46;;;;;;;7.70;4.82;;;3.10;99.90;;;;;;5059857;28;20398;-52
2020/12/11 09:33:16;;;;;;;8.35;5.32;;;3.10;99.90;;;;;;5055887;28;20402;-49
2020/12/11 09:35:43;;;;;;;6.65;4.20;;;3.20;99.90;;;;;;5070281;28;20402;-51
2020/12/11 09:38:09;;;;;;;8.50;4.40;;;3.20;99.90;;;;;;5059607;28;20418;-50
2020/12/11 09:40:46;;;;;;;6.72;4.40;;;3.20;99.90;;;;;;5053814;28;20376;-49
2020/12/11 09:45:47;;;;;;;7.47;4.75;;;3.30;99.90;;;;;;5060830;28;20406;-49
2020/12/11 09:53:45;;;;;;;6.82;4.30;;;3.30;99.90;;;;;;5063221;28;20390;-49
2020/12/11 09:56:22;;;;;;;8.27;4.57;;;3.30;99.90;;;;;;5063556;28;20516;-50
2020/12/11 09:58:49;;;;;;;7.10;4.63;;;3.40;99.90;;;;;;5057058;28;20411;-50
2020/12/11 10:01:20;;;;;;;42.20;9.45;;;3.40;99.90;;;;;;5054177;28;20432;-49
2020/12/11 10:03:46;;;;;;;10.85;5.30;;;3.50;99.90;;;;;;5059983;28;20390;-50
2020/12/11 10:06:13;;;;;;;19.85;6.25;;;3.50;99.90;;;;;;5064095;28;20380;-50
2020/12/11 10:08:39;;;;;;;26.30;8.88;;;3.50;99.90;;;;;;5053972;28;20383;-50
2020/12/11 10:11:05;;;;;;;10.63;5.90;;;3.60;99.90;;;;;;5058633;28;20399;-50
2020/12/11 10:13:34;;;;;;;41.25;9.25;;;3.60;99.90;;;;;;5069628;28;20389;-50
2020/12/11 10:16:00;;;;;;;9.57;5.20;;;3.70;99.90;;;;;;5069489;28;20893;-50
2020/12/11 10:18:26;;;;;;;65.22;11.50;;;3.70;99.90;;;;;;5061824;28;20426;-50
2020/12/11 10:20:54;;;;;;;42.00;9.00;;;3.70;99.90;;;;;;5052645;28;20403;-49
2020/12/11 10:23:20;;;;;;;67.13;14.88;;;3.70;99.90;;;;;;5055144;28;20720;-51
2020/12/11 10:25:49;;;;;;;7.53;4.07;;;3.70;99.90;;;;;;5050014;28;20396;-51
2020/12/11 10:28:15;;;;;;;8.68;4.88;;;3.70;99.90;;;;;;5053341;28;20375;-50
2020/12/11 10:30:41;;;;;;;10.23;5.43;;;3.70;99.90;;;;;;5061264;28;20382;-51
2020/12/11 10:33:08;;;;;;;15.27;6.80;;;3.70;99.90;;;;;;5061728;28;20740;-50
2020/12/11 10:35:34;;;;;;;10.68;5.05;;;3.70;99.90;;;;;;5069978;28;20866;-49
2020/12/11 10:38:00;;;;;;;91.07;17.52;;;3.70;99.90;;;;;;5070304;28;20873;-50
2020/12/11 10:40:26;;;;;;;64.22;12.18;;;3.80;99.90;;;;;;5058529;28;20393;-50
2020/12/11 10:42:52;;;;;;;69.03;13.40;;;3.80;99.90;;;;;;5065551;28;20893;-50
2020/12/11 10:45:18;;;;;;;8.30;4.35;;;3.80;99.90;;;;;;5053082;28;20876;-50
2020/12/11 10:47:44;;;;;;;8.75;4.70;;;3.80;99.90;;;;;;5053795;28;20373;-49
2020/12/11 10:50:11;;;;;;;8.75;4.80;;;3.80;99.90;;;;;;5049760;28;20395;-50
2020/12/11 10:52:37;;;;;;;6.78;3.90;;;3.80;99.90;;;;;;5063084;28;20386;-50
2020/12/11 10:55:03;;;;;;;8.13;4.23;;;3.70;99.90;;;;;;5066720;28;20743;-50
2020/12/11 10:57:29;;;;;;;6.63;4.18;;;3.70;99.90;;;;;;5060947;28;20440;-50
2020/12/11 10:59:55;;;;;;;7.57;4.70;;;3.80;99.90;;;;;;5064444;28;20410;-51
2020/12/11 11:02:21;;;;;;;5.95;4.05;;;3.70;99.90;;;;;;5066715;28;20738;-49
2020/12/11 11:04:48;;;;;;;6.72;3.70;;;3.80;99.90;;;;;;5071731;28;20406;-49
2020/12/11 11:07:17;;;;;;;7.07;4.63;;;3.80;99.90;;;;;;5064454;28;20382;-49
2020/12/11 11:12:27;;;;;;;7.28;4.57;;;3.90;99.90;;;;;;5062757;28;20384;-49
2020/12/11 11:17:58;;;;;;;5.43;3.67;;;3.90;99.90;;;;;;5059725;28;20391;-50
2020/12/11 11:28:18;;;;;;;7.85;3.92;;;4.00;99.90;;;;;;5074981;28;20458;-50
2020/12/11 11:30:44;;;;;;;5.90;3.40;;;4.00;99.90;;;;;;5065127;28;20910;-50
2020/12/11 11:33:10;;;;;;;6.22;3.75;;;4.10;99.90;;;;;;5065750;28;20399;-50
2020/12/11 11:35:36;;;;;;;5.07;3.58;;;4.00;99.90;;;;;;5069699;28;20389;-50
2020/12/11 11:38:06;;;;;;;5.27;3.50;;;4.00;99.90;;;;;;5063622;28;20398;-50
2020/12/11 11:40:32;;;;;;;6.28;3.72;;;4.00;99.90;;;;;;5067650;28;20946;-50
2020/12/11 11:42:58;;;;;;;5.28;3.72;;;3.90;99.90;;;;;;5063399;28;20395;-50
2020/12/11 11:45:26;;;;;;;6.75;4.20;;;3.90;99.90;;;;;;5061117;28;20390;-51
2020/12/11 11:47:56;;;;;;;10.20;5.63;;;3.80;99.90;;;;;;5067263;28;20397;-50
2020/12/11 11:50:34;;;;;;;7.18;4.50;;;3.80;99.90;;;;;;5069722;28;20849;-49
2020/12/11 11:53:22;;;;;;;6.37;3.93;;;3.80;99.90;;;;;;5072631;28;20378;-50
2020/12/11 11:55:47;;;;;;;6.03;3.92;;;3.80;99.90;;;;;;5071723;28;20405;-50
2020/12/11 11:58:14;;;;;;;5.60;3.90;;;3.70;99.90;;;;;;5059159;28;20389;-50
2020/12/11 12:00:40;;;;;;;5.53;3.60;;;3.70;99.90;;;;;;5072519;28;20394;-52
2020/12/11 12:03:06;;;;;;;7.60;3.72;;;3.70;99.90;;;;;;5056908;28;20398;-49
2020/12/11 12:05:33;;;;;;;8.20;4.45;;;3.70;99.90;;;;;;5071303;28;20378;-50
2020/12/11 12:07:59;;;;;;;6.68;3.72;;;3.70;99.90;;;;;;5064185;28;20390;-53
2020/12/11 12:10:28;;;;;;;8.23;4.05;;;3.70;99.90;;;;;;5072045;28;20389;-51
2020/12/11 12:12:54;;;;;;;5.55;3.80;;;3.70;99.90;;;;;;5063060;28;20396;-50
2020/12/11 12:15:24;;;;;;;5.80;3.65;;;3.70;99.90;;;;;;5058777;28;20383;-50
2020/12/11 12:20:23;;;;;;;6.45;3.90;;;3.70;99.90;;;;;;5058252;28;20404;-50
2020/12/11 12:28:34;;;;;;;5.85;3.60;;;3.80;99.90;;;;;;5069415;28;20859;-50
2020/12/11 12:31:05;;;;;;;7.13;3.88;;;3.80;99.90;;;;;;5060021;28;20394;-51
2020/12/11 12:43:37;;;;;;;7.30;4.25;;;4.00;99.90;;;;;;5062237;28;20384;-49
2020/12/11 12:46:05;;;;;;;7.55;4.50;;;4.00;99.90;;;;;;5054367;28;20376;-49
2020/12/11 12:48:31;;;;;;;7.40;4.23;;;4.10;99.90;;;;;;5060685;28;20436;-52
2020/12/11 12:50:57;;;;;;;7.38;4.32;;;4.20;99.90;;;;;;5064894;28;20409;-49
2020/12/11 12:53:23;;;;;;;5.75;3.92;;;4.20;99.90;;;;;;5067605;28;20383;-49
2020/12/11 12:58:38;;;;;;;6.53;4.18;;;4.20;99.90;;;;;;5067037;28;20455;-49
2020/12/11 13:01:26;;;;;;;7.60;4.43;;;4.20;99.90;;;;;;5060578;28;20403;-50
2020/12/11 13:06:42;;;;;;;9.88;4.50;;;4.10;99.90;;;;;;5073925;28;20383;-50
2020/12/11 13:09:08;;;;;;;8.52;4.57;;;4.10;99.90;;;;;;5054604;28;20379;-50
2020/12/11 13:11:34;;;;;;;6.90;4.43;;;4.10;99.90;;;;;;5061935;28;20882;-50
2020/12/11 13:14:00;;;;;;;10.67;4.80;;;4.00;99.90;;;;;;5067701;28;20963;-49
2020/12/11 13:16:27;;;;;;;9.43;4.63;;;3.90;99.90;;;;;;5062310;28;20390;-49
2020/12/11 13:18:53;;;;;;;7.73;4.50;;;3.90;99.90;;;;;;5065442;28;20416;-49
2020/12/11 13:21:33;;;;;;;8.27;4.88;;;3.90;99.90;;;;;;5061990;28;20401;-50
2020/12/11 13:26:50;;;;;;;9.32;4.30;;;3.80;99.90;;;;;;5072035;28;20174;-49
2020/12/11 13:29:17;;;;;;;9.80;5.40;;;3.80;99.90;;;;;;5062514;28;20183;-50
2020/12/11 13:31:43;;;;;;;;;;;3.80;99.90;;;;;;5060009;28;20045;-49
2020/12/11 13:34:09;;;;;;;;;;;3.80;99.90;;;;;;5067526;28;19912;-50
2020/12/11 13:36:35;;;;;;;;;;;3.70;99.90;;;;;;5064047;28;20011;-49
2020/12/11 13:39:01;;;;;;;;;;;3.70;99.90;;;;;;5065373;28;19917;-50
2020/12/11 13:41:27;;;;;;;;;;;3.70;99.90;;;;;;5085285;28;19913;-49
2020/12/11 13:43:53;;;;;;;;;;;3.70;99.90;;;;;;5063144;28;19920;-49
2020/12/11 13:46:19;;;;;;;;;;;3.70;99.90;;;;;;5068729;28;19991;-50
2020/12/11 13:48:45;;;;;;;;;;;3.70;99.90;;;;;;5064206;28;19920;-50
2020/12/11 13:51:11;;;;;;;;;;;3.70;99.90;;;;;;5067461;28;19999;-49
2020/12/11 13:53:37;;;;;;;;;;;3.70;99.90;;;;;;5066199;28;19923;-50
2020/12/11 13:56:03;;;;;;;;;;;3.60;99.90;;;;;;5064590;28;20276;-50